sensor_id;sensor_type;location;lat;lon;timestamp;P1;durP1;ratioP1;P2;durP2;ratioP2
53549;SDS011;67273;52.914;-0.982;2023-02-27T00:00:48;6.15;;;3.00;;
53549;SDS011;67273;52.914;-0.982;2023-02-27T00:03:14;5.10;;;3.00;;
53549;SDS011;67273;52.914;-0.982;2023-02-27T00:05:40;4.75;;;2.90;;
53549;SDS011;67273;52.914;-0.982;2023-02-27T00:08:06;5.50;;;3.22;;
53549;SDS011;67273;52.914;-0.982;2023-02-27T00:10:31;5.30;;;2.90;;
53549;SDS011;67273;52.914;-0.982;2023-02-27T00:12:57;4.80;;;2.83;;
53549;SDS011;67273;52.914;-0.982;2023-02-27T00:15:23;3.60;;;2.70;;
53549;SDS011;67273;52.914;-0.982;2023-02-27T00:17:50;4.97;;;2.65;;
53549;SDS011;67273;52.914;-0.982;2023-02-27T00:20:16;5.13;;;2.92;;
53549;SDS011;67273;52.914;-0.982;2023-02-27T00:22:44;4.80;;;3.03;;
53549;SDS011;67273;52.914;-0.982;2023-02-27T00:25:10;4.07;;;2.63;;
53549;SDS011;67273;52.914;-0.982;2023-02-27T00:27:37;4.82;;;2.70;;
53549;SDS011;67273;52.914;-0.982;2023-02-27T00:30:03;4.65;;;2.78;;
53549;SDS011;67273;52.914;-0.982;2023-02-27T00:32:29;5.72;;;2.80;;
53549;SDS011;67273;52.914;-0.982;2023-02-27T00:34:56;5.80;;;3.00;;
53549;SDS011;67273;52.914;-0.982;2023-02-27T00:37:22;4.35;;;3.00;;
53549;SDS011;67273;52.914;-0.982;2023-02-27T00:39:48;5.22;;;3.20;;
53549;SDS011;67273;52.914;-0.982;2023-02-27T00:42:15;4.55;;;2.70;;
53549;SDS011;67273;52.914;-0.982;2023-02-27T00:44:41;3.88;;;2.60;;
53549;SDS011;67273;52.914;-0.982;2023-02-27T00:47:06;4.88;;;3.00;;
53549;SDS011;67273;52.914;-0.982;2023-02-27T00:49:32;5.35;;;2.90;;
53549;SDS011;67273;52.914;-0.982;2023-02-27T00:52:00;4.40;;;2.50;;
53549;SDS011;67273;52.914;-0.982;2023-02-27T00:54:25;4.97;;;2.85;;
53549;SDS011;67273;52.914;-0.982;2023-02-27T00:56:51;5.82;;;2.95;;
53549;SDS011;67273;52.914;-0.982;2023-02-27T00:59:17;4.75;;;3.13;;
53549;SDS011;67273;52.914;-0.982;2023-02-27T01:01:43;3.80;;;2.55;;
53549;SDS011;67273;52.914;-0.982;2023-02-27T01:04:09;3.67;;;2.30;;
53549;SDS011;67273;52.914;-0.982;2023-02-27T01:06:35;4.75;;;2.60;;
53549;SDS011;67273;52.914;-0.982;2023-02-27T01:09:03;4.20;;;2.72;;
53549;SDS011;67273;52.914;-0.982;2023-02-27T01:11:28;5.43;;;2.55;;
53549;SDS011;67273;52.914;-0.982;2023-02-27T01:13:54;5.60;;;2.58;;
53549;SDS011;67273;52.914;-0.982;2023-02-27T01:16:20;3.13;;;2.35;;
53549;SDS011;67273;52.914;-0.982;2023-02-27T01:18:46;4.13;;;2.40;;
53549;SDS011;67273;52.914;-0.982;2023-02-27T01:21:11;4.28;;;2.45;;
53549;SDS011;67273;52.914;-0.982;2023-02-27T01:23:37;3.97;;;2.50;;
53549;SDS011;67273;52.914;-0.982;2023-02-27T01:26:04;3.60;;;2.35;;
53549;SDS011;67273;52.914;-0.982;2023-02-27T01:28:32;3.88;;;2.58;;
53549;SDS011;67273;52.914;-0.982;2023-02-27T01:30:58;4.72;;;2.35;;
53549;SDS011;67273;52.914;-0.982;2023-02-27T01:33:24;4.00;;;2.00;;
53549;SDS011;67273;52.914;-0.982;2023-02-27T01:35:49;3.08;;;2.17;;
53549;SDS011;67273;52.914;-0.982;2023-02-27T01:38:15;3.55;;;2.20;;
53549;SDS011;67273;52.914;-0.982;2023-02-27T01:40:41;4.00;;;2.17;;
53549;SDS011;67273;52.914;-0.982;2023-02-27T01:43:11;4.22;;;2.30;;
53549;SDS011;67273;52.914;-0.982;2023-02-27T01:45:39;3.88;;;2.28;;
53549;SDS011;67273;52.914;-0.982;2023-02-27T01:48:07;3.65;;;2.10;;
53549;SDS011;67273;52.914;-0.982;2023-02-27T01:50:40;2.97;;;2.30;;
53549;SDS011;67273;52.914;-0.982;2023-02-27T01:53:10;3.65;;;2.17;;
53549;SDS011;67273;52.914;-0.982;2023-02-27T01:55:37;3.58;;;2.05;;
53549;SDS011;67273;52.914;-0.982;2023-02-27T01:58:04;3.63;;;1.95;;
53549;SDS011;67273;52.914;-0.982;2023-02-27T02:00:33;3.38;;;2.20;;
53549;SDS011;67273;52.914;-0.982;2023-02-27T02:03:00;3.72;;;2.17;;
53549;SDS011;67273;52.914;-0.982;2023-02-27T02:05:34;3.53;;;2.00;;
53549;SDS011;67273;52.914;-0.982;2023-02-27T02:08:00;3.17;;;2.00;;
53549;SDS011;67273;52.914;-0.982;2023-02-27T02:10:26;3.03;;;2.13;;
53549;SDS011;67273;52.914;-0.982;2023-02-27T02:12:54;3.08;;;1.90;;
53549;SDS011;67273;52.914;-0.982;2023-02-27T02:15:20;3.53;;;2.00;;
53549;SDS011;67273;52.914;-0.982;2023-02-27T02:17:55;2.78;;;1.83;;
53549;SDS011;67273;52.914;-0.982;2023-02-27T02:23:50;3.25;;;2.17;;
53549;SDS011;67273;52.914;-0.982;2023-02-27T02:26:43;3.55;;;1.83;;
53549;SDS011;67273;52.914;-0.982;2023-02-27T02:39:00;2.35;;;1.63;;
53549;SDS011;67273;52.914;-0.982;2023-02-27T02:41:37;2.20;;;1.48;;
53549;SDS011;67273;52.914;-0.982;2023-02-27T02:44:16;2.58;;;1.83;;
53549;SDS011;67273;52.914;-0.982;2023-02-27T02:46:50;3.10;;;1.80;;
53549;SDS011;67273;52.914;-0.982;2023-02-27T02:49:28;2.75;;;1.52;;
53549;SDS011;67273;52.914;-0.982;2023-02-27T02:52:03;2.85;;;1.80;;
53549;SDS011;67273;52.914;-0.982;2023-02-27T02:54:37;3.08;;;1.60;;
53549;SDS011;67273;52.914;-0.982;2023-02-27T02:57:08;2.60;;;1.73;;
53549;SDS011;67273;52.914;-0.982;2023-02-27T02:59:41;2.72;;;1.80;;
53549;SDS011;67273;52.914;-0.982;2023-02-27T03:02:14;4.25;;;1.90;;
53549;SDS011;67273;52.914;-0.982;2023-02-27T03:04:47;2.38;;;1.70;;
53549;SDS011;67273;52.914;-0.982;2023-02-27T03:07:18;2.83;;;1.55;;
53549;SDS011;67273;52.914;-0.982;2023-02-27T03:09:52;2.55;;;1.50;;
53549;SDS011;67273;52.914;-0.982;2023-02-27T03:12:22;3.05;;;1.55;;
53549;SDS011;67273;52.914;-0.982;2023-02-27T03:14:52;3.30;;;1.75;;
53549;SDS011;67273;52.914;-0.982;2023-02-27T03:17:22;2.85;;;1.60;;
53549;SDS011;67273;52.914;-0.982;2023-02-27T03:19:55;2.80;;;1.60;;
53549;SDS011;67273;52.914;-0.982;2023-02-27T03:22:26;2.72;;;1.60;;
53549;SDS011;67273;52.914;-0.982;2023-02-27T03:24:59;2.25;;;1.70;;
53549;SDS011;67273;52.914;-0.982;2023-02-27T03:27:31;2.15;;;1.40;;
53549;SDS011;67273;52.914;-0.982;2023-02-27T03:30:02;2.42;;;1.40;;
53549;SDS011;67273;52.914;-0.982;2023-02-27T03:32:37;2.72;;;1.40;;
53549;SDS011;67273;52.914;-0.982;2023-02-27T03:35:13;2.25;;;1.40;;
53549;SDS011;67273;52.914;-0.982;2023-02-27T03:37:44;2.38;;;1.50;;
53549;SDS011;67273;52.914;-0.982;2023-02-27T03:40:26;2.22;;;1.60;;
53549;SDS011;67273;52.914;-0.982;2023-02-27T03:43:00;2.45;;;1.50;;
53549;SDS011;67273;52.914;-0.982;2023-02-27T03:45:52;1.98;;;1.40;;
53549;SDS011;67273;52.914;-0.982;2023-02-27T03:48:21;3.17;;;1.52;;
53549;SDS011;67273;52.914;-0.982;2023-02-27T03:50:47;2.67;;;1.60;;
53549;SDS011;67273;52.914;-0.982;2023-02-27T03:53:20;1.65;;;1.30;;
53549;SDS011;67273;52.914;-0.982;2023-02-27T03:55:54;2.75;;;1.40;;
53549;SDS011;67273;52.914;-0.982;2023-02-27T03:58:25;1.80;;;1.50;;
53549;SDS011;67273;52.914;-0.982;2023-02-27T04:00:51;2.42;;;1.60;;
53549;SDS011;67273;52.914;-0.982;2023-02-27T04:03:17;1.98;;;1.20;;
53549;SDS011;67273;52.914;-0.982;2023-02-27T04:05:44;2.22;;;1.35;;
53549;SDS011;67273;52.914;-0.982;2023-02-27T04:08:18;2.25;;;1.40;;
53549;SDS011;67273;52.914;-0.982;2023-02-27T04:11:15;1.58;;;1.23;;
53549;SDS011;67273;52.914;-0.982;2023-02-27T04:13:54;2.67;;;1.50;;
53549;SDS011;67273;52.914;-0.982;2023-02-27T04:19:32;2.08;;;1.30;;
53549;SDS011;67273;52.914;-0.982;2023-02-27T04:22:09;3.00;;;1.35;;
53549;SDS011;67273;52.914;-0.982;2023-02-27T04:24:45;2.78;;;1.30;;
53549;SDS011;67273;52.914;-0.982;2023-02-27T04:27:23;2.25;;;1.40;;
53549;SDS011;67273;52.914;-0.982;2023-02-27T04:29:57;2.47;;;1.42;;
53549;SDS011;67273;52.914;-0.982;2023-02-27T04:32:37;1.85;;;1.38;;
53549;SDS011;67273;52.914;-0.982;2023-02-27T04:35:11;1.65;;;1.17;;
53549;SDS011;67273;52.914;-0.982;2023-02-27T04:37:54;2.08;;;1.40;;
53549;SDS011;67273;52.914;-0.982;2023-02-27T04:40:28;2.22;;;1.40;;
53549;SDS011;67273;52.914;-0.982;2023-02-27T04:43:04;2.30;;;1.30;;
53549;SDS011;67273;52.914;-0.982;2023-02-27T04:45:34;1.92;;;1.23;;
53549;SDS011;67273;52.914;-0.982;2023-02-27T04:48:08;2.15;;;1.20;;
53549;SDS011;67273;52.914;-0.982;2023-02-27T04:50:39;1.53;;;1.20;;
53549;SDS011;67273;52.914;-0.982;2023-02-27T04:53:10;1.70;;;1.08;;
53549;SDS011;67273;52.914;-0.982;2023-02-27T04:55:42;2.10;;;1.25;;
53549;SDS011;67273;52.914;-0.982;2023-02-27T04:58:14;1.58;;;1.13;;
53549;SDS011;67273;52.914;-0.982;2023-02-27T05:00:45;1.52;;;1.10;;
53549;SDS011;67273;52.914;-0.982;2023-02-27T05:03:15;1.60;;;1.10;;
53549;SDS011;67273;52.914;-0.982;2023-02-27T05:05:46;1.77;;;1.23;;
53549;SDS011;67273;52.914;-0.982;2023-02-27T05:08:15;2.33;;;1.23;;
53549;SDS011;67273;52.914;-0.982;2023-02-27T05:10:48;3.20;;;1.30;;
53549;SDS011;67273;52.914;-0.982;2023-02-27T05:13:19;2.05;;;1.33;;
53549;SDS011;67273;52.914;-0.982;2023-02-27T05:15:51;2.17;;;1.30;;
53549;SDS011;67273;52.914;-0.982;2023-02-27T05:18:20;2.33;;;1.40;;
53549;SDS011;67273;52.914;-0.982;2023-02-27T05:20:50;2.03;;;1.30;;
53549;SDS011;67273;52.914;-0.982;2023-02-27T05:23:24;1.92;;;1.25;;
53549;SDS011;67273;52.914;-0.982;2023-02-27T05:26:00;1.67;;;1.05;;
53549;SDS011;67273;52.914;-0.982;2023-02-27T05:28:38;2.20;;;1.23;;
53549;SDS011;67273;52.914;-0.982;2023-02-27T05:31:12;1.50;;;1.20;;
53549;SDS011;67273;52.914;-0.982;2023-02-27T05:33:43;2.17;;;1.20;;
53549;SDS011;67273;52.914;-0.982;2023-02-27T05:36:15;2.65;;;1.10;;
53549;SDS011;67273;52.914;-0.982;2023-02-27T05:38:46;1.92;;;1.25;;
53549;SDS011;67273;52.914;-0.982;2023-02-27T05:41:17;2.35;;;1.20;;
53549;SDS011;67273;52.914;-0.982;2023-02-27T05:43:48;1.83;;;1.13;;
53549;SDS011;67273;52.914;-0.982;2023-02-27T05:46:18;1.25;;;1.00;;
53549;SDS011;67273;52.914;-0.982;2023-02-27T05:48:49;1.55;;;1.00;;
53549;SDS011;67273;52.914;-0.982;2023-02-27T05:51:18;2.10;;;1.13;;
53549;SDS011;67273;52.914;-0.982;2023-02-27T05:53:47;1.60;;;1.13;;
53549;SDS011;67273;52.914;-0.982;2023-02-27T05:56:18;1.10;;;1.00;;
53549;SDS011;67273;52.914;-0.982;2023-02-27T05:58:50;1.83;;;1.20;;
53549;SDS011;67273;52.914;-0.982;2023-02-27T06:01:18;2.47;;;1.13;;
53549;SDS011;67273;52.914;-0.982;2023-02-27T06:03:44;1.25;;;1.00;;
53549;SDS011;67273;52.914;-0.982;2023-02-27T06:06:11;1.60;;;1.08;;
53549;SDS011;67273;52.914;-0.982;2023-02-27T06:08:39;1.70;;;1.00;;
53549;SDS011;67273;52.914;-0.982;2023-02-27T06:11:05;1.05;;;0.93;;
53549;SDS011;67273;52.914;-0.982;2023-02-27T06:13:30;2.17;;;1.27;;
53549;SDS011;67273;52.914;-0.982;2023-02-27T06:15:58;1.90;;;1.05;;
53549;SDS011;67273;52.914;-0.982;2023-02-27T06:18:24;2.03;;;1.10;;
53549;SDS011;67273;52.914;-0.982;2023-02-27T06:20:49;1.23;;;0.95;;
53549;SDS011;67273;52.914;-0.982;2023-02-27T06:23:15;1.02;;;0.90;;
53549;SDS011;67273;52.914;-0.982;2023-02-27T06:25:41;1.77;;;1.15;;
53549;SDS011;67273;52.914;-0.982;2023-02-27T06:28:07;1.83;;;0.98;;
53549;SDS011;67273;52.914;-0.982;2023-02-27T06:30:33;1.67;;;1.02;;
53549;SDS011;67273;52.914;-0.982;2023-02-27T06:33:01;0.90;;;0.80;;
53549;SDS011;67273;52.914;-0.982;2023-02-27T06:35:28;1.05;;;0.90;;
53549;SDS011;67273;52.914;-0.982;2023-02-27T06:37:54;1.88;;;1.08;;
53549;SDS011;67273;52.914;-0.982;2023-02-27T06:40:19;1.25;;;0.95;;
53549;SDS011;67273;52.914;-0.982;2023-02-27T06:42:45;1.80;;;1.10;;
53549;SDS011;67273;52.914;-0.982;2023-02-27T06:45:12;1.27;;;0.90;;
53549;SDS011;67273;52.914;-0.982;2023-02-27T06:47:39;1.27;;;1.00;;
53549;SDS011;67273;52.914;-0.982;2023-02-27T06:50:07;1.40;;;1.02;;
53549;SDS011;67273;52.914;-0.982;2023-02-27T06:52:36;1.52;;;0.90;;
53549;SDS011;67273;52.914;-0.982;2023-02-27T06:55:02;0.90;;;0.80;;
53549;SDS011;67273;52.914;-0.982;2023-02-27T06:57:29;1.25;;;0.98;;
53549;SDS011;67273;52.914;-0.982;2023-02-27T06:59:55;1.13;;;0.95;;
53549;SDS011;67273;52.914;-0.982;2023-02-27T07:02:20;1.88;;;0.90;;
53549;SDS011;67273;52.914;-0.982;2023-02-27T07:04:48;1.90;;;0.95;;
53549;SDS011;67273;52.914;-0.982;2023-02-27T07:07:15;1.65;;;0.80;;
53549;SDS011;67273;52.914;-0.982;2023-02-27T07:09:40;1.52;;;1.00;;
53549;SDS011;67273;52.914;-0.982;2023-02-27T07:12:06;1.40;;;0.98;;
53549;SDS011;67273;52.914;-0.982;2023-02-27T07:14:32;2.10;;;1.10;;
53549;SDS011;67273;52.914;-0.982;2023-02-27T07:16:58;0.95;;;0.90;;
53549;SDS011;67273;52.914;-0.982;2023-02-27T07:19:27;1.75;;;0.90;;
53549;SDS011;67273;52.914;-0.982;2023-02-27T07:21:53;1.05;;;0.88;;
53549;SDS011;67273;52.914;-0.982;2023-02-27T07:24:20;2.20;;;1.05;;
53549;SDS011;67273;52.914;-0.982;2023-02-27T07:26:46;2.00;;;1.00;;
53549;SDS011;67273;52.914;-0.982;2023-02-27T07:29:12;1.23;;;0.77;;
53549;SDS011;67273;52.914;-0.982;2023-02-27T07:31:39;1.35;;;0.90;;
53549;SDS011;67273;52.914;-0.982;2023-02-27T07:34:04;1.23;;;0.90;;
53549;SDS011;67273;52.914;-0.982;2023-02-27T07:36:30;0.90;;;0.90;;
53549;SDS011;67273;52.914;-0.982;2023-02-27T07:38:56;1.05;;;0.75;;
53549;SDS011;67273;52.914;-0.982;2023-02-27T07:41:24;2.15;;;0.85;;
53549;SDS011;67273;52.914;-0.982;2023-02-27T07:43:49;1.17;;;0.70;;
53549;SDS011;67273;52.914;-0.982;2023-02-27T07:46:15;1.40;;;1.02;;
53549;SDS011;67273;52.914;-0.982;2023-02-27T07:48:41;2.90;;;1.05;;
53549;SDS011;67273;52.914;-0.982;2023-02-27T07:51:06;2.58;;;0.90;;
53549;SDS011;67273;52.914;-0.982;2023-02-27T07:53:32;2.33;;;1.10;;
53549;SDS011;67273;52.914;-0.982;2023-02-27T07:55:58;1.35;;;1.00;;
53549;SDS011;67273;52.914;-0.982;2023-02-27T07:58:25;2.08;;;0.95;;
53549;SDS011;67273;52.914;-0.982;2023-02-27T08:00:52;2.78;;;1.02;;
53549;SDS011;67273;52.914;-0.982;2023-02-27T08:03:18;2.13;;;1.00;;
53549;SDS011;67273;52.914;-0.982;2023-02-27T08:05:43;2.97;;;0.98;;
53549;SDS011;67273;52.914;-0.982;2023-02-27T08:08:09;2.92;;;1.23;;
53549;SDS011;67273;52.914;-0.982;2023-02-27T08:10:35;3.30;;;1.05;;
53549;SDS011;67273;52.914;-0.982;2023-02-27T08:13:01;1.10;;;0.90;;
53549;SDS011;67273;52.914;-0.982;2023-02-27T08:15:29;1.52;;;0.80;;
53549;SDS011;67273;52.914;-0.982;2023-02-27T08:17:56;1.90;;;0.80;;
53549;SDS011;67273;52.914;-0.982;2023-02-27T08:20:22;1.98;;;1.00;;
53549;SDS011;67273;52.914;-0.982;2023-02-27T08:22:48;3.75;;;1.17;;
53549;SDS011;67273;52.914;-0.982;2023-02-27T08:25:14;2.65;;;1.30;;
53549;SDS011;67273;52.914;-0.982;2023-02-27T08:27:40;3.90;;;1.30;;
53549;SDS011;67273;52.914;-0.982;2023-02-27T08:30:07;3.70;;;1.30;;
53549;SDS011;67273;52.914;-0.982;2023-02-27T08:32:37;2.67;;;1.10;;
53549;SDS011;67273;52.914;-0.982;2023-02-27T08:35:04;4.72;;;1.55;;
53549;SDS011;67273;52.914;-0.982;2023-02-27T08:37:30;3.83;;;1.55;;
53549;SDS011;67273;52.914;-0.982;2023-02-27T08:39:56;5.50;;;1.48;;
53549;SDS011;67273;52.914;-0.982;2023-02-27T08:42:22;5.35;;;1.42;;
53549;SDS011;67273;52.914;-0.982;2023-02-27T08:44:47;5.55;;;1.40;;
53549;SDS011;67273;52.914;-0.982;2023-02-27T08:47:14;3.20;;;1.45;;
53549;SDS011;67273;52.914;-0.982;2023-02-27T08:49:41;5.75;;;1.65;;
53549;SDS011;67273;52.914;-0.982;2023-02-27T08:52:07;2.72;;;1.25;;
53549;SDS011;67273;52.914;-0.982;2023-02-27T08:54:34;5.43;;;1.58;;
53549;SDS011;67273;52.914;-0.982;2023-02-27T08:57:01;4.05;;;1.45;;
53549;SDS011;67273;52.914;-0.982;2023-02-27T08:59:28;4.97;;;1.42;;
53549;SDS011;67273;52.914;-0.982;2023-02-27T09:01:54;5.32;;;1.58;;
53549;SDS011;67273;52.914;-0.982;2023-02-27T09:04:19;2.78;;;1.20;;
53549;SDS011;67273;52.914;-0.982;2023-02-27T09:06:46;7.53;;;1.50;;
53549;SDS011;67273;52.914;-0.982;2023-02-27T09:09:12;2.75;;;1.20;;
53549;SDS011;67273;52.914;-0.982;2023-02-27T09:11:38;3.25;;;1.23;;
53549;SDS011;67273;52.914;-0.982;2023-02-27T09:14:04;6.88;;;1.30;;
53549;SDS011;67273;52.914;-0.982;2023-02-27T09:16:30;3.67;;;1.35;;
53549;SDS011;67273;52.914;-0.982;2023-02-27T09:18:56;2.70;;;1.15;;
53549;SDS011;67273;52.914;-0.982;2023-02-27T09:21:22;3.65;;;1.55;;
53549;SDS011;67273;52.914;-0.982;2023-02-27T09:23:50;4.18;;;1.40;;
53549;SDS011;67273;52.914;-0.982;2023-02-27T09:26:16;4.18;;;1.50;;
53549;SDS011;67273;52.914;-0.982;2023-02-27T09:28:42;4.25;;;1.40;;
53549;SDS011;67273;52.914;-0.982;2023-02-27T09:31:08;4.18;;;1.50;;
53549;SDS011;67273;52.914;-0.982;2023-02-27T09:33:35;4.72;;;1.50;;
53549;SDS011;67273;52.914;-0.982;2023-02-27T09:36:02;4.30;;;1.38;;
53549;SDS011;67273;52.914;-0.982;2023-02-27T09:38:29;4.75;;;1.70;;
53549;SDS011;67273;52.914;-0.982;2023-02-27T09:40:57;3.65;;;1.40;;
53549;SDS011;67273;52.914;-0.982;2023-02-27T09:43:24;3.42;;;1.33;;
53549;SDS011;67273;52.914;-0.982;2023-02-27T09:45:57;3.65;;;1.20;;
53549;SDS011;67273;52.914;-0.982;2023-02-27T09:48:26;3.53;;;1.20;;
53549;SDS011;67273;52.914;-0.982;2023-02-27T09:50:55;2.20;;;1.08;;
53549;SDS011;67273;52.914;-0.982;2023-02-27T09:53:23;4.93;;;1.40;;
53549;SDS011;67273;52.914;-0.982;2023-02-27T09:55:51;2.90;;;1.33;;
53549;SDS011;67273;52.914;-0.982;2023-02-27T09:58:25;3.50;;;1.20;;
53549;SDS011;67273;52.914;-0.982;2023-02-27T10:00:58;3.42;;;1.02;;
53549;SDS011;67273;52.914;-0.982;2023-02-27T10:06:19;3.50;;;1.40;;
53549;SDS011;67273;52.914;-0.982;2023-02-27T10:08:50;5.63;;;1.80;;
53549;SDS011;67273;52.914;-0.982;2023-02-27T10:11:29;3.70;;;1.20;;
53549;SDS011;67273;52.914;-0.982;2023-02-27T10:14:02;6.63;;;1.48;;
53549;SDS011;67273;52.914;-0.982;2023-02-27T10:16:40;3.03;;;1.10;;
53549;SDS011;67273;52.914;-0.982;2023-02-27T10:19:10;2.25;;;1.10;;
53549;SDS011;67273;52.914;-0.982;2023-02-27T10:21:41;3.50;;;1.15;;
53549;SDS011;67273;52.914;-0.982;2023-02-27T10:24:11;2.20;;;1.10;;
53549;SDS011;67273;52.914;-0.982;2023-02-27T10:26:48;4.78;;;1.20;;
53549;SDS011;67273;52.914;-0.982;2023-02-27T10:29:22;3.38;;;1.27;;
53549;SDS011;67273;52.914;-0.982;2023-02-27T10:31:54;1.50;;;0.90;;
53549;SDS011;67273;52.914;-0.982;2023-02-27T10:34:26;3.05;;;1.13;;
53549;SDS011;67273;52.914;-0.982;2023-02-27T10:36:54;3.15;;;1.45;;
53549;SDS011;67273;52.914;-0.982;2023-02-27T10:39:23;4.70;;;1.73;;
53549;SDS011;67273;52.914;-0.982;2023-02-27T10:41:49;3.88;;;1.60;;
53549;SDS011;67273;52.914;-0.982;2023-02-27T10:44:16;4.63;;;1.80;;
53549;SDS011;67273;52.914;-0.982;2023-02-27T10:46:46;4.57;;;1.85;;
53549;SDS011;67273;52.914;-0.982;2023-02-27T10:49:13;2.78;;;1.42;;
53549;SDS011;67273;52.914;-0.982;2023-02-27T10:51:40;3.53;;;1.80;;
53549;SDS011;67273;52.914;-0.982;2023-02-27T10:54:21;4.97;;;1.77;;
53549;SDS011;67273;52.914;-0.982;2023-02-27T10:56:50;6.13;;;1.50;;
53549;SDS011;67273;52.914;-0.982;2023-02-27T10:59:18;2.78;;;1.30;;
53549;SDS011;67273;52.914;-0.982;2023-02-27T11:01:48;3.88;;;1.40;;
53549;SDS011;67273;52.914;-0.982;2023-02-27T11:04:30;3.08;;;1.40;;
53549;SDS011;67273;52.914;-0.982;2023-02-27T11:06:59;2.13;;;1.20;;
53549;SDS011;67273;52.914;-0.982;2023-02-27T11:09:28;3.20;;;1.30;;
53549;SDS011;67273;52.914;-0.982;2023-02-27T11:12:08;6.47;;;1.70;;
53549;SDS011;67273;52.914;-0.982;2023-02-27T11:14:36;3.05;;;1.33;;
53549;SDS011;67273;52.914;-0.982;2023-02-27T11:17:20;2.90;;;1.25;;
53549;SDS011;67273;52.914;-0.982;2023-02-27T11:19:50;3.42;;;1.48;;
53549;SDS011;67273;52.914;-0.982;2023-02-27T11:22:17;1.70;;;1.15;;
53549;SDS011;67273;52.914;-0.982;2023-02-27T11:24:44;2.25;;;1.30;;
53549;SDS011;67273;52.914;-0.982;2023-02-27T11:27:16;4.00;;;1.52;;
53549;SDS011;67273;52.914;-0.982;2023-02-27T11:29:54;6.30;;;1.50;;
53549;SDS011;67273;52.914;-0.982;2023-02-27T11:32:23;3.15;;;1.10;;
53549;SDS011;67273;52.914;-0.982;2023-02-27T11:34:52;5.18;;;1.20;;
53549;SDS011;67273;52.914;-0.982;2023-02-27T11:37:20;2.58;;;1.30;;
53549;SDS011;67273;52.914;-0.982;2023-02-27T11:39:50;4.43;;;1.67;;
53549;SDS011;67273;52.914;-0.982;2023-02-27T11:42:22;2.00;;;1.13;;
53549;SDS011;67273;52.914;-0.982;2023-02-27T11:44:54;2.88;;;1.10;;
53549;SDS011;67273;52.914;-0.982;2023-02-27T11:47:25;3.22;;;1.30;;
53549;SDS011;67273;52.914;-0.982;2023-02-27T11:50:05;1.83;;;1.00;;
53549;SDS011;67273;52.914;-0.982;2023-02-27T11:53:00;2.15;;;1.08;;
53549;SDS011;67273;52.914;-0.982;2023-02-27T11:55:44;1.95;;;0.93;;
53549;SDS011;67273;52.914;-0.982;2023-02-27T11:58:12;2.03;;;1.00;;
53549;SDS011;67273;52.914;-0.982;2023-02-27T12:00:42;5.88;;;1.10;;
53549;SDS011;67273;52.914;-0.982;2023-02-27T12:03:16;2.05;;;1.10;;
53549;SDS011;67273;52.914;-0.982;2023-02-27T12:05:49;2.15;;;1.00;;
53549;SDS011;67273;52.914;-0.982;2023-02-27T12:08:18;1.67;;;0.90;;
53549;SDS011;67273;52.914;-0.982;2023-02-27T12:10:53;1.33;;;0.80;;
53549;SDS011;67273;52.914;-0.982;2023-02-27T12:13:23;3.47;;;0.90;;
53549;SDS011;67273;52.914;-0.982;2023-02-27T12:15:51;1.20;;;0.85;;
53549;SDS011;67273;52.914;-0.982;2023-02-27T12:18:27;4.25;;;1.10;;
53549;SDS011;67273;52.914;-0.982;2023-02-27T12:20:56;1.33;;;0.80;;
53549;SDS011;67273;52.914;-0.982;2023-02-27T12:23:26;3.67;;;0.98;;
53549;SDS011;67273;52.914;-0.982;2023-02-27T12:26:00;4.00;;;1.10;;
53549;SDS011;67273;52.914;-0.982;2023-02-27T12:28:39;2.30;;;1.10;;
53549;SDS011;67273;52.914;-0.982;2023-02-27T12:34:16;2.28;;;1.10;;
53549;SDS011;67273;52.914;-0.982;2023-02-27T12:36:50;2.38;;;0.95;;
53549;SDS011;67273;52.914;-0.982;2023-02-27T12:39:18;3.42;;;1.20;;
53549;SDS011;67273;52.914;-0.982;2023-02-27T12:41:57;1.40;;;0.93;;
53549;SDS011;67273;52.914;-0.982;2023-02-27T12:44:38;2.58;;;1.20;;
53549;SDS011;67273;52.914;-0.982;2023-02-27T12:47:17;3.78;;;1.02;;
53549;SDS011;67273;52.914;-0.982;2023-02-27T12:49:52;2.45;;;1.00;;
53549;SDS011;67273;52.914;-0.982;2023-02-27T12:52:28;3.65;;;1.00;;
53549;SDS011;67273;52.914;-0.982;2023-02-27T12:55:04;3.47;;;0.88;;
53549;SDS011;67273;52.914;-0.982;2023-02-27T12:57:51;2.20;;;1.00;;
53549;SDS011;67273;52.914;-0.982;2023-02-27T13:00:31;1.80;;;0.80;;
53549;SDS011;67273;52.914;-0.982;2023-02-27T13:03:09;1.45;;;0.80;;
53549;SDS011;67273;52.914;-0.982;2023-02-27T13:05:42;2.05;;;0.80;;
53549;SDS011;67273;52.914;-0.982;2023-02-27T13:10:52;1.55;;;0.90;;
53549;SDS011;67273;52.914;-0.982;2023-02-27T13:13:31;1.85;;;0.75;;
53549;SDS011;67273;52.914;-0.982;2023-02-27T13:16:04;2.33;;;0.90;;
53549;SDS011;67273;52.914;-0.982;2023-02-27T13:18:38;2.20;;;1.00;;
53549;SDS011;67273;52.914;-0.982;2023-02-27T13:21:12;0.75;;;0.75;;
53549;SDS011;67273;52.914;-0.982;2023-02-27T13:23:51;1.40;;;0.85;;
53549;SDS011;67273;52.914;-0.982;2023-02-27T13:26:27;2.30;;;0.70;;
53549;SDS011;67273;52.914;-0.982;2023-02-27T13:28:57;1.95;;;0.73;;
53549;SDS011;67273;52.914;-0.982;2023-02-27T13:31:30;3.35;;;1.10;;
53549;SDS011;67273;52.914;-0.982;2023-02-27T13:34:07;2.85;;;1.17;;
53549;SDS011;67273;52.914;-0.982;2023-02-27T13:36:41;1.30;;;0.80;;
53549;SDS011;67273;52.914;-0.982;2023-02-27T13:42:03;1.45;;;0.85;;
53549;SDS011;67273;52.914;-0.982;2023-02-27T13:44:36;2.63;;;1.00;;
53549;SDS011;67273;52.914;-0.982;2023-02-27T13:50:03;2.10;;;0.70;;
53549;SDS011;67273;52.914;-0.982;2023-02-27T13:52:51;1.50;;;0.70;;
53549;SDS011;67273;52.914;-0.982;2023-02-27T13:55:24;1.02;;;0.60;;
53549;SDS011;67273;52.914;-0.982;2023-02-27T13:57:52;1.17;;;0.70;;
53549;SDS011;67273;52.914;-0.982;2023-02-27T14:00:21;0.68;;;0.60;;
53549;SDS011;67273;52.914;-0.982;2023-02-27T14:02:50;2.25;;;0.80;;
53549;SDS011;67273;52.914;-0.982;2023-02-27T14:05:25;2.35;;;1.17;;
53549;SDS011;67273;52.914;-0.982;2023-02-27T14:07:57;2.08;;;0.90;;
53549;SDS011;67273;52.914;-0.982;2023-02-27T14:10:28;1.83;;;0.70;;
53549;SDS011;67273;52.914;-0.982;2023-02-27T14:12:56;1.92;;;0.85;;
53549;SDS011;67273;52.914;-0.982;2023-02-27T14:24:17;1.63;;;0.90;;
53549;SDS011;67273;52.914;-0.982;2023-02-27T14:26:44;1.75;;;0.73;;
53549;SDS011;67273;52.914;-0.982;2023-02-27T14:29:13;1.23;;;0.77;;
53549;SDS011;67273;52.914;-0.982;2023-02-27T14:31:42;1.92;;;0.75;;
53549;SDS011;67273;52.914;-0.982;2023-02-27T14:34:10;2.53;;;0.90;;
53549;SDS011;67273;52.914;-0.982;2023-02-27T14:36:39;2.20;;;0.90;;
53549;SDS011;67273;52.914;-0.982;2023-02-27T14:39:15;1.73;;;0.77;;
53549;SDS011;67273;52.914;-0.982;2023-02-27T14:41:49;1.75;;;0.80;;
53549;SDS011;67273;52.914;-0.982;2023-02-27T14:44:23;0.73;;;0.65;;
53549;SDS011;67273;52.914;-0.982;2023-02-27T14:46:52;2.40;;;0.85;;
53549;SDS011;67273;52.914;-0.982;2023-02-27T14:49:19;1.10;;;0.80;;
53549;SDS011;67273;52.914;-0.982;2023-02-27T14:51:47;0.82;;;0.60;;
53549;SDS011;67273;52.914;-0.982;2023-02-27T14:54:16;2.10;;;0.80;;
53549;SDS011;67273;52.914;-0.982;2023-02-27T14:56:53;1.17;;;0.52;;
53549;SDS011;67273;52.914;-0.982;2023-02-27T14:59:21;1.35;;;0.70;;
53549;SDS011;67273;52.914;-0.982;2023-02-27T15:01:47;1.17;;;0.70;;
53549;SDS011;67273;52.914;-0.982;2023-02-27T15:04:13;1.08;;;0.60;;
53549;SDS011;67273;52.914;-0.982;2023-02-27T15:06:42;2.38;;;0.65;;
53549;SDS011;67273;52.914;-0.982;2023-02-27T15:09:16;0.73;;;0.50;;
53549;SDS011;67273;52.914;-0.982;2023-02-27T15:11:47;1.23;;;0.52;;
53549;SDS011;67273;52.914;-0.982;2023-02-27T15:14:17;0.88;;;0.65;;
53549;SDS011;67273;52.914;-0.982;2023-02-27T15:16:45;0.98;;;0.63;;
53549;SDS011;67273;52.914;-0.982;2023-02-27T15:19:12;1.95;;;0.60;;
53549;SDS011;67273;52.914;-0.982;2023-02-27T15:21:42;1.20;;;0.82;;
53549;SDS011;67273;52.914;-0.982;2023-02-27T15:24:19;1.55;;;0.55;;
53549;SDS011;67273;52.914;-0.982;2023-02-27T15:26:50;1.00;;;0.57;;
53549;SDS011;67273;52.914;-0.982;2023-02-27T15:29:20;1.70;;;0.68;;